createdAt,value
2018-11-07T00:00:54.144Z,22.75
2018-11-07T00:03:23.249Z,18.33
2018-11-07T00:05:53.054Z,18.13
2018-11-07T00:08:22.558Z,14.10
2018-11-07T00:10:55.691Z,14.87
2018-11-07T00:13:24.798Z,14.53
2018-11-07T00:15:53.903Z,17.47
2018-11-07T00:18:23.033Z,12.97
2018-11-07T00:20:52.188Z,16.40
2018-11-07T00:23:23.804Z,14.30
2018-11-07T00:25:53.189Z,13.80
2018-11-07T00:28:24.771Z,12.90
2018-11-07T00:30:56.836Z,10.43
2018-11-07T00:33:26.551Z,14.73
2018-11-07T00:35:55.651Z,14.67
2018-11-07T00:38:25.239Z,19.00
2018-11-07T00:40:55.450Z,31.97
2018-11-07T00:43:24.621Z,34.20
2018-11-07T00:45:53.748Z,27.40
2018-11-07T00:48:28.181Z,28.00
2018-11-07T00:50:57.340Z,29.97
2018-11-07T00:53:28.073Z,33.90
2018-11-07T00:55:57.196Z,36.87
2018-11-07T00:58:26.376Z,38.10
2018-11-07T01:00:55.466Z,40.07
2018-11-07T01:03:32.583Z,31.00
2018-11-07T01:06:03.823Z,33.53
2018-11-07T01:08:33.023Z,32.87
2018-11-07T01:11:02.786Z,36.60
2018-11-07T01:13:39.471Z,35.57
2018-11-07T01:16:11.058Z,32.90
2018-11-07T01:18:40.637Z,38.23
2018-11-07T01:21:09.746Z,31.40
2018-11-07T01:23:38.880Z,36.97
2018-11-07T01:26:08.636Z,30.47
2018-11-07T01:28:38.055Z,26.73
2018-11-07T01:31:07.853Z,28.50
2018-11-07T01:33:37.004Z,32.97
2018-11-07T01:36:06.207Z,25.90
2018-11-07T01:38:35.908Z,23.27
2018-11-07T01:41:09.381Z,26.53
2018-11-07T01:43:38.523Z,21.97
2018-11-07T01:46:13.654Z,19.73
2018-11-07T01:48:42.756Z,18.77
2018-11-07T01:51:17.702Z,18.60
2018-11-07T01:53:46.851Z,20.03
2018-11-07T01:56:30.746Z,22.37
2018-11-07T01:58:59.875Z,21.17
2018-11-07T02:01:30.293Z,23.40
2018-11-07T02:04:00.388Z,19.87
2018-11-07T02:06:35.592Z,24.13
2018-11-07T02:09:06.001Z,23.90
2018-11-07T02:11:36.698Z,21.90
2018-11-07T02:14:05.799Z,23.30
2018-11-07T02:16:36.540Z,26.20
2018-11-07T02:19:08.920Z,23.07
2018-11-07T02:23:47.952Z,20.80
2018-11-07T02:26:17.703Z,18.53
2018-11-07T02:28:48.477Z,18.07
2018-11-07T02:31:17.618Z,20.13
2018-11-07T02:33:46.711Z,17.70
2018-11-07T02:36:16.353Z,20.93
2018-11-07T02:38:46.016Z,20.47
2018-11-07T02:41:15.112Z,20.73
2018-11-07T02:43:46.362Z,22.17
2018-11-07T02:46:15.611Z,18.40
2018-11-07T02:48:50.646Z,19.53
2018-11-07T02:51:20.462Z,13.83
2018-11-07T02:53:49.561Z,17.90
2018-11-07T02:56:19.273Z,20.23
2018-11-07T02:58:48.775Z,18.50
2018-11-07T03:01:18.932Z,15.23
2018-11-07T03:03:51.422Z,17.07
2018-11-07T03:06:20.555Z,16.90
2018-11-07T03:08:50.586Z,19.50
2018-11-07T03:11:19.663Z,17.10
2018-11-07T03:14:03.361Z,16.97
2018-11-07T03:16:32.583Z,18.40
2018-11-07T03:19:01.766Z,18.63
2018-11-07T03:21:31.731Z,15.30
2018-11-07T03:24:05.558Z,14.90
2018-11-07T03:26:34.651Z,19.03
2018-11-07T03:29:07.476Z,17.83
2018-11-07T03:31:37.496Z,16.70
2018-11-07T03:34:06.555Z,18.80
2018-11-07T03:36:35.729Z,18.90
2018-11-07T03:39:12.164Z,21.80
2018-11-07T03:41:41.462Z,20.07
2018-11-07T03:44:10.875Z,18.83
2018-11-07T03:46:39.965Z,15.87
2018-11-07T03:49:14.708Z,17.60
2018-11-07T03:51:43.808Z,17.20
2018-11-07T03:54:12.954Z,15.70
2018-11-07T03:57:00.197Z,18.83
2018-11-07T03:59:29.385Z,15.10
2018-11-07T04:01:58.592Z,17.80
2018-11-07T04:04:27.727Z,15.10
2018-11-07T04:06:58.417Z,15.00
2018-11-07T04:09:27.583Z,15.40
2018-11-07T04:11:56.768Z,15.80
2018-11-07T04:14:26.821Z,16.83
2018-11-07T04:17:08.722Z,15.03
2018-11-07T04:19:37.820Z,14.47
2018-11-07T04:22:07.056Z,15.87
2018-11-07T04:24:36.585Z,17.30
2018-11-07T04:27:05.771Z,18.53
2018-11-07T04:29:34.892Z,12.67
2018-11-07T04:32:04.073Z,16.00
2018-11-07T04:34:37.405Z,18.10
2018-11-07T04:37:06.779Z,17.03
2018-11-07T04:39:36.172Z,16.73
2018-11-07T04:42:05.279Z,16.80
2018-11-07T04:44:41.276Z,13.17
2018-11-07T04:47:10.326Z,12.87
2018-11-07T04:49:39.421Z,14.63
2018-11-07T04:52:08.936Z,17.27
2018-11-07T04:54:40.517Z,16.00
2018-11-07T04:57:09.607Z,13.70
2018-11-07T04:59:38.675Z,13.77
2018-11-07T05:02:08.865Z,13.00
2018-11-07T05:04:38.027Z,16.97
2018-11-07T05:07:07.205Z,12.77
2018-11-07T05:09:41.250Z,14.23
2018-11-07T05:12:14.396Z,22.47
2018-11-07T05:14:44.245Z,20.00
2018-11-07T05:17:13.993Z,22.87
2018-11-07T05:19:43.201Z,19.70
2018-11-07T05:22:13.216Z,20.97
2018-11-07T05:24:42.646Z,19.73
2018-11-07T05:27:11.871Z,15.17
2018-11-07T05:29:41.886Z,18.20
2018-11-07T05:32:12.130Z,18.30
2018-11-07T05:34:45.696Z,19.30
2018-11-07T05:37:15.024Z,21.70
2018-11-07T05:39:44.311Z,18.70
2018-11-07T05:42:13.505Z,21.33
2018-11-07T05:44:44.057Z,22.73
2018-11-07T05:47:14.256Z,22.40
2018-11-07T05:49:45.145Z,22.40
2018-11-07T05:52:15.647Z,18.00
2018-11-07T05:54:44.835Z,18.70
2018-11-07T05:57:14.101Z,20.17
2018-11-07T05:59:45.605Z,19.63
2018-11-07T06:02:14.799Z,17.17
2018-11-07T06:04:43.986Z,16.57
2018-11-07T06:07:13.589Z,15.27
2018-11-07T06:09:42.800Z,15.43
2018-11-07T06:12:12.062Z,15.43
2018-11-07T06:14:49.140Z,17.80
2018-11-07T06:17:18.326Z,14.97
2018-11-07T06:19:47.535Z,15.30
2018-11-07T06:22:18.248Z,23.70
2018-11-07T06:24:47.524Z,16.70
2018-11-07T06:27:16.801Z,20.10
2018-11-07T06:29:45.945Z,13.23
2018-11-07T06:32:15.790Z,17.53
2018-11-07T06:34:44.967Z,14.53
2018-11-07T06:37:16.032Z,22.00
2018-11-07T06:39:45.240Z,40.93
2018-11-07T06:42:14.365Z,37.40
2018-11-07T06:44:43.915Z,24.93
2018-11-07T06:47:14.429Z,28.77
2018-11-07T06:49:43.537Z,21.33
2018-11-07T06:52:13.716Z,21.43
2018-11-07T06:54:51.060Z,15.40
2018-11-07T06:57:22.011Z,19.77
2018-11-07T06:59:51.168Z,19.87
2018-11-07T07:02:21.571Z,17.97
2018-11-07T07:04:50.796Z,23.17
2018-11-07T07:07:20.639Z,25.97
2018-11-07T07:09:50.167Z,22.83
2018-11-07T07:12:20.034Z,21.67
2018-11-07T07:14:49.895Z,23.47
2018-11-07T07:17:19.103Z,19.50
2018-11-07T07:19:49.724Z,17.67
2018-11-07T07:22:19.951Z,22.67
2018-11-07T07:24:50.376Z,20.70
2018-11-07T07:27:23.522Z,18.07
2018-11-07T07:29:54.076Z,20.63
2018-11-07T07:32:23.268Z,19.60
2018-11-07T07:34:52.401Z,24.67
2018-11-07T07:37:21.504Z,26.23
2018-11-07T07:39:56.491Z,16.87
2018-11-07T07:42:26.413Z,19.00
2018-11-07T07:44:55.656Z,20.93
2018-11-07T07:47:25.142Z,17.67
2018-11-07T07:49:54.251Z,16.07
2018-11-07T07:52:23.472Z,15.70
2018-11-07T07:54:52.596Z,19.63
2018-11-07T07:57:22.481Z,17.17
2018-11-07T07:59:51.608Z,17.13
2018-11-07T08:02:22.381Z,15.03
2018-11-07T08:04:52.306Z,15.17
2018-11-07T08:07:26.374Z,13.17
2018-11-07T08:09:55.585Z,14.57
2018-11-07T08:12:26.515Z,13.00
2018-11-07T08:15:02.700Z,12.17
2018-11-07T08:17:31.887Z,14.80
2018-11-07T08:20:01.257Z,13.43
2018-11-07T08:22:30.481Z,12.47
2018-11-07T08:25:02.762Z,14.87
2018-11-07T08:27:32.060Z,11.33
2018-11-07T08:30:01.196Z,9.77
2018-11-07T08:32:30.300Z,9.57
2018-11-07T08:35:01.566Z,8.07
2018-11-07T08:37:30.680Z,8.57
2018-11-07T08:40:09.141Z,9.30
2018-11-07T08:42:39.535Z,7.37
2018-11-07T08:45:10.357Z,6.20
2018-11-07T08:47:40.492Z,7.80
2018-11-07T08:50:19.479Z,5.70
2018-11-07T08:52:51.284Z,6.97
2018-11-07T08:55:28.439Z,5.90
2018-11-07T08:57:59.335Z,6.13
2018-11-07T09:00:28.460Z,7.90
2018-11-07T09:02:58.124Z,4.70
2018-11-07T09:05:34.696Z,4.83
2018-11-07T09:08:04.805Z,5.27
2018-11-07T09:10:34.508Z,5.23
2018-11-07T09:13:03.804Z,4.73
2018-11-07T09:15:33.265Z,4.40
2018-11-07T09:18:11.192Z,5.17
2018-11-07T09:20:40.320Z,4.50
2018-11-07T09:23:10.431Z,3.33
2018-11-07T09:25:40.001Z,2.53
2018-11-07T09:28:10.349Z,4.50
2018-11-07T09:30:42.337Z,2.93
2018-11-07T09:33:13.497Z,3.37
2018-11-07T09:35:43.590Z,4.07
2018-11-07T09:38:12.704Z,3.63
2018-11-07T09:40:48.185Z,4.13
2018-11-07T09:43:17.935Z,3.37
2018-11-07T09:45:48.041Z,2.90
2018-11-07T09:48:17.256Z,6.73
2018-11-07T09:50:48.811Z,4.80
2018-11-07T09:53:19.781Z,4.17
2018-11-07T09:55:57.066Z,2.73
2018-11-07T09:58:26.229Z,2.03
2018-11-07T10:00:55.339Z,3.57
2018-11-07T10:06:25.405Z,1.63
2018-11-07T10:08:55.495Z,2.87
2018-11-07T10:11:25.701Z,1.67
2018-11-07T10:13:57.067Z,1.97
2018-11-07T10:16:26.220Z,2.17
2018-11-07T10:19:05.290Z,3.63
2018-11-07T10:21:34.395Z,3.20
2018-11-07T10:24:06.596Z,2.57
2018-11-07T10:26:38.752Z,3.23
2018-11-07T10:29:08.335Z,3.13
2018-11-07T10:31:37.882Z,5.23
2018-11-07T10:34:08.080Z,3.17
2018-11-07T10:36:37.281Z,1.97
2018-11-07T10:39:10.595Z,1.93
2018-11-07T10:41:40.204Z,1.73
2018-11-07T10:44:09.970Z,2.90
2018-11-07T10:46:40.033Z,3.93
2018-11-07T10:49:09.174Z,2.30
2018-11-07T10:51:40.629Z,1.50
2018-11-07T10:54:10.354Z,3.37
2018-11-07T10:56:46.750Z,2.63
2018-11-07T10:59:17.753Z,2.80
2018-11-07T11:01:52.249Z,3.23
2018-11-07T11:04:30.893Z,5.13
2018-11-07T11:07:00.158Z,4.67
2018-11-07T11:09:29.359Z,3.03
2018-11-07T11:11:58.535Z,2.33
2018-11-07T11:14:27.735Z,3.87
2018-11-07T11:17:02.974Z,11.43
2018-11-07T11:19:32.064Z,9.93
2018-11-07T11:22:17.388Z,2.27
2018-11-07T11:24:48.551Z,3.17
2018-11-07T11:27:22.705Z,8.00
2018-11-07T11:29:52.948Z,2.57
2018-11-07T11:32:22.084Z,2.40
2018-11-07T11:34:54.590Z,2.50
2018-11-07T11:37:27.386Z,6.10
2018-11-07T11:39:56.471Z,3.53
2018-11-07T11:42:36.489Z,2.80
2018-11-07T11:45:08.368Z,1.57
2018-11-07T11:47:41.805Z,2.40
2018-11-07T11:50:18.174Z,3.10
2018-11-07T11:52:51.535Z,2.27
2018-11-07T11:55:21.403Z,1.90
2018-11-07T11:57:54.710Z,2.20
2018-11-07T12:00:24.814Z,3.17
2018-11-07T12:02:54.515Z,2.60
2018-11-07T12:05:36.292Z,1.73
2018-11-07T12:08:08.334Z,2.93
2018-11-07T12:10:39.604Z,0.97
2018-11-07T12:13:11.045Z,1.30
2018-11-07T12:15:45.253Z,4.30
2018-11-07T12:18:20.809Z,2.23
2018-11-07T12:20:53.779Z,4.47
2018-11-07T12:23:23.035Z,1.70
2018-11-07T12:25:52.747Z,2.97
2018-11-07T12:28:22.845Z,1.03
2018-11-07T12:30:52.734Z,2.37
2018-11-07T12:33:22.869Z,2.37
2018-11-07T12:35:57.269Z,4.00
2018-11-07T12:38:27.808Z,2.20
2018-11-07T12:40:57.733Z,1.40
2018-11-07T12:43:28.986Z,1.90
2018-11-07T12:46:00.269Z,2.80
2018-11-07T12:48:30.180Z,2.33
2018-11-07T12:51:01.161Z,1.67
2018-11-07T12:53:31.496Z,2.10
2018-11-07T12:56:00.704Z,1.60
2018-11-07T12:58:29.832Z,1.70
2018-11-07T13:00:59.011Z,2.53
2018-11-07T13:06:18.393Z,2.57
2018-11-07T13:08:50.020Z,1.90
2018-11-07T13:11:37.404Z,2.70
2018-11-07T13:14:07.650Z,3.27
2018-11-07T13:16:41.788Z,3.37
2018-11-07T13:19:24.578Z,1.47
2018-11-07T13:21:54.720Z,3.63
2018-11-07T13:24:24.762Z,2.50
2018-11-07T13:26:53.988Z,5.57
2018-11-07T13:29:29.733Z,4.53
2018-11-07T13:32:00.286Z,3.03
2018-11-07T13:34:31.649Z,4.50
2018-11-07T13:40:14.698Z,2.73
2018-11-07T13:42:43.915Z,2.10
2018-11-07T13:45:18.655Z,2.63
2018-11-07T13:47:51.377Z,3.30
2018-11-07T13:50:23.219Z,4.20
2018-11-07T13:55:52.268Z,2.40
2018-11-07T13:58:21.416Z,2.57
2018-11-07T14:00:50.535Z,5.33
2018-11-07T14:03:21.513Z,4.60
2018-11-07T14:06:12.964Z,3.73
2018-11-07T14:08:44.431Z,3.20
2018-11-07T14:11:15.806Z,9.77
2018-11-07T14:13:52.674Z,5.73
2018-11-07T14:16:21.971Z,7.40
2018-11-07T14:18:51.168Z,6.37
2018-11-07T14:21:29.576Z,6.13
2018-11-07T14:23:58.724Z,5.53
2018-11-07T14:26:28.562Z,8.67
2018-11-07T14:29:01.429Z,6.70
2018-11-07T14:31:30.654Z,7.67
2018-11-07T14:33:59.942Z,8.67
2018-11-07T14:36:30.325Z,5.10
2018-11-07T14:38:59.619Z,5.83
2018-11-07T14:41:30.186Z,4.53
2018-11-07T14:43:59.683Z,4.00
2018-11-07T14:46:30.550Z,4.63
2018-11-07T14:49:00.729Z,3.23
2018-11-07T14:51:32.769Z,3.73
2018-11-07T14:54:03.470Z,2.60
2018-11-07T14:56:40.712Z,2.77
2018-11-07T14:59:11.536Z,2.77
2018-11-07T15:01:40.951Z,6.70
2018-11-07T15:04:10.734Z,4.57
2018-11-07T15:06:42.047Z,3.13
2018-11-07T15:09:12.015Z,3.30
2018-11-07T15:11:48.312Z,2.80
2018-11-07T15:14:18.708Z,3.03
2018-11-07T15:16:50.295Z,2.17
2018-11-07T15:19:20.995Z,3.53
2018-11-07T15:21:51.221Z,3.97
2018-11-07T15:24:24.526Z,1.67
2018-11-07T15:27:01.045Z,2.90
2018-11-07T15:29:32.006Z,4.60
2018-11-07T15:32:10.142Z,2.80
2018-11-07T15:34:40.030Z,2.87
2018-11-07T15:37:09.726Z,3.43
2018-11-07T15:39:40.128Z,4.80
2018-11-07T15:42:09.269Z,2.07
2018-11-07T15:44:39.020Z,3.07
2018-11-07T15:47:09.335Z,3.10
2018-11-07T15:51:45.199Z,4.40
2018-11-07T15:54:17.354Z,3.60
2018-11-07T15:56:49.804Z,3.17
2018-11-07T15:59:21.228Z,4.83
2018-11-07T16:01:51.924Z,3.27
2018-11-07T16:04:24.177Z,4.77
2018-11-07T16:06:54.726Z,3.73
2018-11-07T16:09:36.194Z,3.70
2018-11-07T16:12:10.151Z,4.00
2018-11-07T16:14:41.580Z,8.03
2018-11-07T16:17:11.473Z,2.27
2018-11-07T16:19:43.135Z,4.20
2018-11-07T16:22:13.959Z,5.13
2018-11-07T16:24:44.677Z,14.03
2018-11-07T16:27:14.860Z,16.57
2018-11-07T16:29:45.354Z,11.80
2018-11-07T16:32:26.094Z,4.23
2018-11-07T16:35:03.581Z,6.30
2018-11-07T16:37:35.653Z,5.90
2018-11-07T16:40:08.210Z,6.33
2018-11-07T16:42:39.787Z,5.80
2018-11-07T16:45:10.878Z,4.17
2018-11-07T16:47:42.711Z,3.00
2018-11-07T16:50:14.347Z,3.73
2018-11-07T16:55:30.513Z,5.00
2018-11-07T16:58:06.394Z,4.80
2018-11-07T17:00:36.603Z,3.73
2018-11-07T17:03:07.410Z,4.80
2018-11-07T17:05:39.139Z,6.20
2018-11-07T17:08:10.057Z,5.37
2018-11-07T17:10:41.539Z,4.57
2018-11-07T17:13:14.272Z,3.37
2018-11-07T17:15:43.736Z,5.10
2018-11-07T17:18:22.767Z,5.13
2018-11-07T17:20:52.889Z,6.93
2018-11-07T17:23:22.177Z,3.77
2018-11-07T17:25:52.144Z,3.50
2018-11-07T17:28:22.122Z,3.87
2018-11-07T17:30:52.694Z,6.30
2018-11-07T17:33:23.713Z,4.13
2018-11-07T17:35:53.702Z,7.87
2018-11-07T17:38:23.917Z,3.70
2018-11-07T17:40:57.014Z,5.10
2018-11-07T17:43:26.310Z,5.23
2018-11-07T17:46:07.438Z,8.40
2018-11-07T17:48:46.258Z,7.77
2018-11-07T17:51:23.594Z,5.10
2018-11-07T17:54:01.103Z,7.23
2018-11-07T17:56:40.774Z,5.93
2018-11-07T17:59:17.164Z,7.13
2018-11-07T18:01:57.038Z,6.43
2018-11-07T18:04:36.581Z,11.07
2018-11-07T18:07:13.179Z,5.73
2018-11-07T18:09:44.333Z,8.30
2018-11-07T18:12:24.647Z,5.60
2018-11-07T18:14:58.113Z,4.73
2018-11-07T18:20:39.263Z,3.33
2018-11-07T18:23:14.200Z,3.63
2018-11-07T18:26:02.802Z,2.30
2018-11-07T18:28:38.459Z,3.10
2018-11-07T18:31:09.133Z,6.63
2018-11-07T18:33:48.888Z,3.33
2018-11-07T18:36:18.953Z,6.97
2018-11-07T18:38:50.128Z,3.77
2018-11-07T18:41:19.981Z,4.53
2018-11-07T18:43:50.927Z,6.70
2018-11-07T18:46:20.450Z,3.80
2018-11-07T18:48:50.021Z,3.50
2018-11-07T18:51:21.823Z,5.07
2018-11-07T18:53:53.262Z,21.03
2018-11-07T18:56:23.952Z,8.53
2018-11-07T18:59:00.562Z,3.53
2018-11-07T19:01:30.739Z,3.97
2018-11-07T19:04:01.203Z,4.57
2018-11-07T19:06:31.527Z,3.20
2018-11-07T19:09:02.823Z,2.97
2018-11-07T19:11:34.734Z,4.67
2018-11-07T19:14:17.948Z,3.97
2018-11-07T19:16:49.940Z,5.63
2018-11-07T19:19:22.519Z,5.27
2018-11-07T19:21:54.799Z,3.43
2018-11-07T19:24:35.998Z,3.63
2018-11-07T19:27:09.267Z,3.37
2018-11-07T19:29:43.409Z,4.00
2018-11-07T19:32:18.758Z,6.03
2018-11-07T19:34:50.473Z,2.57
2018-11-07T19:37:23.333Z,3.23
2018-11-07T19:39:55.678Z,4.33
2018-11-07T19:42:25.264Z,3.17
2018-11-07T19:44:56.943Z,2.93
2018-11-07T19:47:27.213Z,2.47
2018-11-07T19:49:58.202Z,2.80
2018-11-07T19:52:31.179Z,4.17
2018-11-07T19:57:49.514Z,4.23
2018-11-07T20:00:27.761Z,3.37
2018-11-07T20:02:59.033Z,3.17
2018-11-07T20:05:37.192Z,2.07
2018-11-07T20:08:07.813Z,3.77
2018-11-07T20:10:38.685Z,2.40
2018-11-07T20:13:10.120Z,4.07
2018-11-07T20:15:46.676Z,3.30
2018-11-07T20:18:17.420Z,3.13
2018-11-07T20:20:47.626Z,4.63
2018-11-07T20:23:24.028Z,5.27
2018-11-07T20:25:53.974Z,5.47
2018-11-07T20:28:32.650Z,8.57
2018-11-07T20:31:01.876Z,5.00
2018-11-07T20:33:37.482Z,5.00
2018-11-07T20:36:08.391Z,5.60
2018-11-07T20:38:39.382Z,3.30
2018-11-07T20:41:09.382Z,3.83
2018-11-07T20:43:43.864Z,2.80
2018-11-07T20:46:15.319Z,4.43
2018-11-07T20:48:46.974Z,4.43
2018-11-07T20:51:19.019Z,2.90
2018-11-07T20:53:51.164Z,3.40
2018-11-07T20:56:20.731Z,3.23
2018-11-07T20:58:52.846Z,3.50
2018-11-07T21:01:23.716Z,3.63
2018-11-07T21:03:55.062Z,2.60
2018-11-07T21:06:25.993Z,3.67
2018-11-07T21:09:05.222Z,2.90
2018-11-07T21:11:34.597Z,2.97
2018-11-07T21:14:07.370Z,2.40
2018-11-07T21:16:36.740Z,4.50
2018-11-07T21:19:07.190Z,3.77
2018-11-07T21:21:37.125Z,3.10
2018-11-07T21:24:07.745Z,2.63
2018-11-07T21:26:37.006Z,4.03
2018-11-07T21:29:06.496Z,2.57
2018-11-07T21:31:42.791Z,4.93
2018-11-07T21:34:13.380Z,5.00
2018-11-07T21:36:43.353Z,2.63
2018-11-07T21:42:06.395Z,2.73
2018-11-07T21:44:35.645Z,4.27
2018-11-07T21:47:07.377Z,4.57
2018-11-07T21:49:37.896Z,4.13
2018-11-07T21:52:11.574Z,3.43
2018-11-07T21:54:42.111Z,5.73
2018-11-07T21:57:12.316Z,4.37
2018-11-07T21:59:44.308Z,6.13
2018-11-07T22:02:14.863Z,6.83
2018-11-07T22:04:46.545Z,10.87
2018-11-07T22:07:15.824Z,9.20
2018-11-07T22:09:47.029Z,9.30
2018-11-07T22:12:16.293Z,8.23
2018-11-07T22:14:51.705Z,4.67
2018-11-07T22:17:21.963Z,3.50
2018-11-07T22:19:51.105Z,5.13
2018-11-07T22:22:20.961Z,5.00
2018-11-07T22:25:02.195Z,8.67
2018-11-07T22:27:34.257Z,5.93
2018-11-07T22:30:06.048Z,4.43
2018-11-07T22:32:36.811Z,13.40
2018-11-07T22:35:07.241Z,15.53
2018-11-07T22:37:40.768Z,11.40
2018-11-07T22:40:21.837Z,13.40
2018-11-07T22:42:51.741Z,10.20
2018-11-07T22:45:22.275Z,7.87
2018-11-07T22:47:53.333Z,9.47
2018-11-07T22:50:25.618Z,7.43
2018-11-07T22:52:56.521Z,11.87
2018-11-07T22:55:31.559Z,13.13
2018-11-07T22:58:00.692Z,10.10
2018-11-07T23:00:35.242Z,8.43
2018-11-07T23:03:07.301Z,9.57
2018-11-07T23:05:38.344Z,5.03
2018-11-07T23:08:11.066Z,5.37
2018-11-07T23:10:42.382Z,4.90
2018-11-07T23:13:13.219Z,4.80
2018-11-07T23:15:47.777Z,6.33
2018-11-07T23:18:19.312Z,3.73
2018-11-07T23:20:50.844Z,6.73
2018-11-07T23:23:20.090Z,4.80
2018-11-07T23:25:49.251Z,4.07
2018-11-07T23:28:18.383Z,5.00
2018-11-07T23:30:47.540Z,4.73
2018-11-07T23:33:16.339Z,6.27
2018-11-07T23:35:49.388Z,5.30
2018-11-07T23:38:18.622Z,6.70
2018-11-07T23:40:48.654Z,7.70
2018-11-07T23:43:18.282Z,6.80
2018-11-07T23:45:50.932Z,6.33
2018-11-07T23:48:20.108Z,6.10
2018-11-07T23:50:53.242Z,6.83
2018-11-07T23:53:22.492Z,3.80
2018-11-07T23:55:53.390Z,6.80
2018-11-07T23:58:23.361Z,5.00
